createdAt,value
2019-03-19T00:01:02.187Z,1013.96
2019-03-19T00:02:07.707Z,1013.95
2019-03-19T00:03:13.195Z,1013.93
2019-03-19T00:04:18.703Z,1013.92
2019-03-19T00:05:24.225Z,1013.97
2019-03-19T00:06:29.726Z,1013.97
2019-03-19T00:07:35.217Z,1013.99
2019-03-19T00:08:40.742Z,1013.95
2019-03-19T00:09:46.250Z,1013.89
2019-03-19T00:10:51.742Z,1013.93
2019-03-19T00:11:57.992Z,1013.91
2019-03-19T00:13:02.764Z,1013.90
2019-03-19T00:14:08.261Z,1013.91
2019-03-19T00:15:13.771Z,1013.93
2019-03-19T00:16:19.285Z,1013.89
2019-03-19T00:17:24.777Z,1013.89
2019-03-19T00:18:30.269Z,1013.87
2019-03-19T00:19:35.790Z,1013.86
2019-03-19T00:20:41.311Z,1013.89
2019-03-19T00:21:46.818Z,1013.93
2019-03-19T00:22:52.312Z,1013.93
2019-03-19T00:23:57.820Z,1013.91
2019-03-19T00:25:03.323Z,1013.91
2019-03-19T00:26:08.841Z,1013.92
2019-03-19T00:27:14.341Z,1013.94
2019-03-19T00:28:19.850Z,1013.90
2019-03-19T00:29:25.353Z,1013.91
2019-03-19T00:30:30.858Z,1013.91
2019-03-19T00:31:36.368Z,1013.98
2019-03-19T00:32:41.871Z,1014.01
2019-03-19T00:33:47.389Z,1014.00
2019-03-19T00:34:52.895Z,1014.02
2019-03-19T00:35:58.397Z,1014.00
2019-03-19T00:37:03.892Z,1014.05
2019-03-19T00:38:09.409Z,1014.00
2019-03-19T00:39:14.908Z,1014.04
2019-03-19T00:40:20.421Z,1014.01
2019-03-19T00:41:25.923Z,1014.00
2019-03-19T00:42:31.435Z,1014.02
2019-03-19T00:43:36.929Z,1014.04
2019-03-19T00:44:42.437Z,1014.02
2019-03-19T00:45:47.943Z,1014.00
2019-03-19T00:46:53.453Z,1014.04
2019-03-19T00:47:58.968Z,1014.07
2019-03-19T00:49:06.698Z,1014.05
2019-03-19T00:50:09.968Z,1014.03
2019-03-19T00:51:15.475Z,1014.05
2019-03-19T00:52:20.982Z,1014.10
2019-03-19T00:53:26.482Z,1014.11
2019-03-19T00:54:32.034Z,1014.14
2019-03-19T00:55:40.911Z,1014.14
2019-03-19T00:56:43.006Z,1014.16
2019-03-19T00:57:48.521Z,1014.16
2019-03-19T00:58:54.023Z,1014.18
2019-03-19T00:59:59.526Z,1014.16
2019-03-19T01:01:05.037Z,1014.13
2019-03-19T01:02:10.528Z,1014.16
2019-03-19T01:03:16.037Z,1014.22
2019-03-19T01:04:21.542Z,1014.20
2019-03-19T01:05:27.050Z,1014.17
2019-03-19T01:06:32.561Z,1014.15
2019-03-19T01:07:38.062Z,1014.13
2019-03-19T01:08:43.584Z,1014.12
2019-03-19T01:09:49.076Z,1014.16
2019-03-19T01:10:54.575Z,1014.13
2019-03-19T01:12:00.086Z,1014.16
2019-03-19T01:13:05.590Z,1014.18
2019-03-19T01:14:11.093Z,1014.18
2019-03-19T01:15:16.602Z,1014.15
2019-03-19T01:16:22.118Z,1014.23
2019-03-19T01:17:27.615Z,1014.16
2019-03-19T01:18:33.120Z,1014.14
2019-03-19T01:19:38.627Z,1014.15
2019-03-19T01:20:44.128Z,1014.20
2019-03-19T01:21:49.634Z,1014.22
2019-03-19T01:22:55.137Z,1014.24
2019-03-19T01:24:00.648Z,1014.24
2019-03-19T01:25:06.153Z,1014.24
2019-03-19T01:26:11.654Z,1014.24
2019-03-19T01:27:17.172Z,1014.28
2019-03-19T01:28:22.669Z,1014.25
2019-03-19T01:29:28.184Z,1014.29
2019-03-19T01:30:33.677Z,1014.33
2019-03-19T01:31:39.185Z,1014.29
2019-03-19T01:32:44.686Z,1014.36
2019-03-19T01:33:50.201Z,1014.37
2019-03-19T01:34:55.702Z,1014.44
2019-03-19T01:36:01.226Z,1014.47
2019-03-19T01:37:06.719Z,1014.48
2019-03-19T01:38:12.219Z,1014.47
2019-03-19T01:39:17.723Z,1014.49
2019-03-19T01:40:23.226Z,1014.49
2019-03-19T01:41:28.728Z,1014.51
2019-03-19T01:42:34.234Z,1014.50
2019-03-19T01:43:39.745Z,1014.50
2019-03-19T01:44:45.252Z,1014.54
2019-03-19T01:45:50.754Z,1014.53
2019-03-19T01:46:56.266Z,1014.54
2019-03-19T01:48:01.773Z,1014.52
2019-03-19T01:49:07.272Z,1014.53
2019-03-19T01:50:12.776Z,1014.49
2019-03-19T01:51:18.280Z,1014.50
2019-03-19T01:52:23.784Z,1014.48
2019-03-19T01:53:29.295Z,1014.46
2019-03-19T01:54:34.799Z,1014.46
2019-03-19T01:55:40.304Z,1014.44
2019-03-19T01:56:45.807Z,1014.47
2019-03-19T01:57:51.315Z,1014.49
2019-03-19T01:58:56.826Z,1014.46
2019-03-19T02:00:02.330Z,1014.46
2019-03-19T02:01:07.835Z,1014.49
2019-03-19T02:02:13.346Z,1014.46
2019-03-19T02:03:18.837Z,1014.44
2019-03-19T02:04:24.342Z,1014.41
2019-03-19T02:05:29.850Z,1014.43
2019-03-19T02:06:35.361Z,1014.43
2019-03-19T02:07:40.869Z,1014.44
2019-03-19T02:08:46.366Z,1014.48
2019-03-19T02:09:51.882Z,1014.48
2019-03-19T02:10:57.382Z,1014.51
2019-03-19T02:12:02.884Z,1014.54
2019-03-19T02:13:08.380Z,1014.54
2019-03-19T02:14:13.885Z,1014.60
2019-03-19T02:15:19.390Z,1014.58
2019-03-19T02:16:24.898Z,1014.52
2019-03-19T02:17:30.407Z,1014.55
2019-03-19T02:18:35.920Z,1014.53
2019-03-19T02:19:41.425Z,1014.54
2019-03-19T02:20:46.928Z,1014.51
2019-03-19T02:21:52.429Z,1014.53
2019-03-19T02:22:57.936Z,1014.57
2019-03-19T02:24:03.433Z,1014.59
2019-03-19T02:25:08.972Z,1014.57
2019-03-19T02:26:16.659Z,1014.61
2019-03-19T02:27:19.960Z,1014.58
2019-03-19T02:28:25.461Z,1014.66
2019-03-19T02:29:30.963Z,1014.69
2019-03-19T02:30:36.550Z,1014.69
2019-03-19T02:31:41.984Z,1014.70
2019-03-19T02:32:47.479Z,1014.82
2019-03-19T02:33:53.052Z,1014.86
2019-03-19T02:34:58.492Z,1014.87
2019-03-19T02:36:04.003Z,1014.88
2019-03-19T02:37:09.504Z,1014.88
2019-03-19T02:38:15.006Z,1014.85
2019-03-19T02:39:20.508Z,1014.83
2019-03-19T02:40:26.012Z,1014.82
2019-03-19T02:41:31.513Z,1014.78
2019-03-19T02:42:37.017Z,1014.79
2019-03-19T02:43:42.522Z,1014.76
2019-03-19T02:44:48.038Z,1014.71
2019-03-19T02:45:53.552Z,1014.75
2019-03-19T02:46:59.048Z,1014.75
2019-03-19T02:48:04.550Z,1014.78
2019-03-19T02:49:10.065Z,1014.80
2019-03-19T02:50:15.556Z,1014.81
2019-03-19T02:51:21.058Z,1014.85
2019-03-19T02:52:26.562Z,1014.91
2019-03-19T02:53:32.081Z,1014.95
2019-03-19T02:54:37.569Z,1014.96
2019-03-19T02:55:43.093Z,1014.96
2019-03-19T02:56:48.593Z,1014.99
2019-03-19T02:57:54.091Z,1014.99
2019-03-19T02:58:59.596Z,1015.02
2019-03-19T03:00:05.110Z,1015.01
2019-03-19T03:01:10.606Z,1015.04
2019-03-19T03:02:16.109Z,1015.05
2019-03-19T03:03:21.616Z,1015.10
2019-03-19T03:04:27.120Z,1015.11
2019-03-19T03:05:32.630Z,1015.08
2019-03-19T03:06:38.128Z,1015.11
2019-03-19T03:07:43.632Z,1015.07
2019-03-19T03:08:49.134Z,1015.11
2019-03-19T03:09:54.651Z,1015.07
2019-03-19T03:11:00.152Z,1015.13
2019-03-19T03:12:05.657Z,1015.10
2019-03-19T03:13:11.159Z,1015.13
2019-03-19T03:14:16.655Z,1015.14
2019-03-19T03:15:22.182Z,1015.17
2019-03-19T03:16:27.682Z,1015.15
2019-03-19T03:17:33.175Z,1015.18
2019-03-19T03:18:38.677Z,1015.16
2019-03-19T03:19:44.182Z,1015.16
2019-03-19T03:20:49.686Z,1015.13
2019-03-19T03:21:55.202Z,1015.13
2019-03-19T03:23:00.695Z,1015.10
2019-03-19T03:24:06.220Z,1015.13
2019-03-19T03:25:11.708Z,1015.17
2019-03-19T03:26:17.231Z,1015.15
2019-03-19T03:27:22.721Z,1015.15
2019-03-19T03:28:28.218Z,1015.15
2019-03-19T03:29:33.722Z,1015.15
2019-03-19T03:30:39.246Z,1015.21
2019-03-19T03:31:44.738Z,1015.22
2019-03-19T03:32:50.274Z,1015.25
2019-03-19T03:33:55.749Z,1015.24
2019-03-19T03:35:01.261Z,1015.24
2019-03-19T03:36:06.761Z,1015.20
2019-03-19T03:37:12.257Z,1015.25
2019-03-19T03:38:17.763Z,1015.24
2019-03-19T03:39:23.266Z,1015.27
2019-03-19T03:40:28.769Z,1015.26
2019-03-19T03:41:34.281Z,1015.33
2019-03-19T03:42:42.826Z,1015.33
2019-03-19T03:43:45.291Z,1015.32
2019-03-19T03:44:50.795Z,1015.32
2019-03-19T03:45:56.297Z,1015.34
2019-03-19T03:47:01.811Z,1015.35
2019-03-19T03:48:07.310Z,1015.42
2019-03-19T03:49:12.817Z,1015.43
2019-03-19T03:50:18.317Z,1015.44
2019-03-19T03:51:23.817Z,1015.50
2019-03-19T03:52:29.319Z,1015.51
2019-03-19T03:53:34.824Z,1015.51
2019-03-19T03:54:40.329Z,1015.51
2019-03-19T03:55:45.844Z,1015.50
2019-03-19T03:57:01.332Z,1015.47
2019-03-19T03:57:56.839Z,1015.46
2019-03-19T03:59:02.358Z,1015.44
2019-03-19T04:00:07.852Z,1015.45
2019-03-19T04:01:13.354Z,1015.50
2019-03-19T04:02:18.864Z,1015.50
2019-03-19T04:03:24.375Z,1015.53
2019-03-19T04:04:29.877Z,1015.54
2019-03-19T04:05:35.470Z,1015.55
2019-03-19T04:06:40.888Z,1015.52
2019-03-19T04:07:46.380Z,1015.56
2019-03-19T04:08:51.883Z,1015.52
2019-03-19T04:09:57.387Z,1015.52
2019-03-19T04:11:02.894Z,1015.56
2019-03-19T04:12:08.403Z,1015.58
2019-03-19T04:13:13.903Z,1015.58
2019-03-19T04:14:19.413Z,1015.57
2019-03-19T04:15:24.924Z,1015.54
2019-03-19T04:16:30.421Z,1015.53
2019-03-19T04:17:35.917Z,1015.58
2019-03-19T04:18:41.431Z,1015.55
2019-03-19T04:19:46.933Z,1015.59
2019-03-19T04:20:52.545Z,1015.59
2019-03-19T04:21:57.945Z,1015.60
2019-03-19T04:23:03.454Z,1015.61
2019-03-19T04:24:08.962Z,1015.66
2019-03-19T04:25:14.459Z,1015.62
2019-03-19T04:26:19.956Z,1015.63
2019-03-19T04:27:25.461Z,1015.62
2019-03-19T04:28:30.963Z,1015.63
2019-03-19T04:29:36.471Z,1015.59
2019-03-19T04:30:41.971Z,1015.63
2019-03-19T04:31:47.487Z,1015.61
2019-03-19T04:32:52.985Z,1015.67
2019-03-19T04:33:58.490Z,1015.69
2019-03-19T04:35:04.002Z,1015.74
2019-03-19T04:36:09.498Z,1015.74
2019-03-19T04:37:15.006Z,1015.77
2019-03-19T04:38:20.499Z,1015.75
2019-03-19T04:39:26.010Z,1015.75
2019-03-19T04:40:31.512Z,1015.78
2019-03-19T04:41:37.029Z,1015.75
2019-03-19T04:42:42.542Z,1015.77
2019-03-19T04:43:48.025Z,1015.81
2019-03-19T04:44:53.529Z,1015.79
2019-03-19T04:45:59.035Z,1015.76
2019-03-19T04:47:04.552Z,1015.78
2019-03-19T04:48:10.043Z,1015.78
2019-03-19T04:49:15.541Z,1015.82
2019-03-19T04:50:21.060Z,1015.85
2019-03-19T04:51:26.557Z,1015.89
2019-03-19T04:52:32.067Z,1015.88
2019-03-19T04:53:37.564Z,1015.87
2019-03-19T04:54:43.068Z,1015.89
2019-03-19T04:55:48.584Z,1015.91
2019-03-19T04:56:54.074Z,1015.90
2019-03-19T04:57:59.590Z,1015.89
2019-03-19T04:59:05.083Z,1015.87
2019-03-19T05:00:10.591Z,1015.91
2019-03-19T05:01:16.099Z,1015.85
2019-03-19T05:02:21.602Z,1015.90
2019-03-19T05:03:27.109Z,1015.91
2019-03-19T05:04:32.605Z,1015.91
2019-03-19T05:05:38.110Z,1015.96
2019-03-19T05:06:43.619Z,1015.97
2019-03-19T05:07:49.122Z,1015.99
2019-03-19T05:08:54.627Z,1016.03
2019-03-19T05:10:00.252Z,1016.06
2019-03-19T05:11:05.639Z,1016.06
2019-03-19T05:12:11.148Z,1016.08
2019-03-19T05:13:16.651Z,1016.06
2019-03-19T05:14:22.152Z,1016.07
2019-03-19T05:15:27.657Z,1016.08
2019-03-19T05:16:33.171Z,1016.02
2019-03-19T05:17:38.667Z,1016.02
2019-03-19T05:18:44.166Z,1016.05
2019-03-19T05:19:49.670Z,1016.02
2019-03-19T05:20:55.178Z,1015.99
2019-03-19T05:22:00.686Z,1015.99
2019-03-19T05:23:06.191Z,1016.01
2019-03-19T05:24:11.688Z,1016.01
2019-03-19T05:25:17.196Z,1016.01
2019-03-19T05:26:22.695Z,1016.01
2019-03-19T05:27:36.989Z,1016.04
2019-03-19T05:28:33.710Z,1016.04
2019-03-19T05:29:39.212Z,1016.02
2019-03-19T05:30:44.729Z,1016.03
2019-03-19T05:31:50.237Z,1016.03
2019-03-19T05:32:55.729Z,1016.07
2019-03-19T05:34:01.229Z,1016.04
2019-03-19T05:35:06.738Z,1016.05
2019-03-19T05:36:12.235Z,1016.12
2019-03-19T05:37:17.747Z,1016.07
2019-03-19T05:38:23.264Z,1016.05
2019-03-19T05:39:28.752Z,1016.03
2019-03-19T05:40:34.258Z,1016.09
2019-03-19T05:41:39.771Z,1016.11
2019-03-19T05:42:45.263Z,1016.09
2019-03-19T05:43:50.833Z,1016.14
2019-03-19T05:44:56.273Z,1016.16
2019-03-19T05:46:01.784Z,1016.14
2019-03-19T05:47:07.291Z,1016.14
2019-03-19T05:48:12.790Z,1016.13
2019-03-19T05:49:18.292Z,1016.11
2019-03-19T05:50:23.796Z,1016.13
2019-03-19T05:51:29.305Z,1016.13
2019-03-19T05:52:34.805Z,1016.17
2019-03-19T05:53:40.306Z,1016.15
2019-03-19T05:54:45.812Z,1016.23
2019-03-19T05:55:51.323Z,1016.26
2019-03-19T05:56:56.818Z,1016.22
2019-03-19T05:58:02.337Z,1016.22
2019-03-19T05:59:07.829Z,1016.26
2019-03-19T06:00:13.339Z,1016.32
2019-03-19T06:01:18.839Z,1016.37
2019-03-19T06:02:24.352Z,1016.33
2019-03-19T06:03:29.841Z,1016.38
2019-03-19T06:04:35.347Z,1016.41
2019-03-19T06:05:40.852Z,1016.46
2019-03-19T06:06:46.362Z,1016.49
2019-03-19T06:07:51.863Z,1016.45
2019-03-19T06:08:57.370Z,1016.54
2019-03-19T06:10:02.887Z,1016.50
2019-03-19T06:11:08.376Z,1016.52
2019-03-19T06:12:13.894Z,1016.51
2019-03-19T06:13:19.382Z,1016.50
2019-03-19T06:14:24.890Z,1016.50
2019-03-19T06:15:30.400Z,1016.49
2019-03-19T06:16:35.903Z,1016.49
2019-03-19T06:17:41.405Z,1016.47
2019-03-19T06:18:46.911Z,1016.46
2019-03-19T06:19:52.408Z,1016.45
2019-03-19T06:20:57.926Z,1016.45
2019-03-19T06:22:03.423Z,1016.44
2019-03-19T06:23:08.932Z,1016.47
2019-03-19T06:24:14.430Z,1016.50
2019-03-19T06:25:19.942Z,1016.50
2019-03-19T06:26:25.438Z,1016.52
2019-03-19T06:27:30.934Z,1016.58
2019-03-19T06:28:36.445Z,1016.58
2019-03-19T06:29:41.951Z,1016.61
2019-03-19T06:30:47.449Z,1016.65
2019-03-19T06:31:52.961Z,1016.64
2019-03-19T06:32:58.475Z,1016.63
2019-03-19T06:34:03.964Z,1016.64
2019-03-19T06:35:09.466Z,1016.62
2019-03-19T06:36:14.982Z,1016.65
2019-03-19T06:37:20.479Z,1016.70
2019-03-19T06:38:25.986Z,1016.69
2019-03-19T06:39:31.483Z,1016.74
2019-03-19T06:40:36.988Z,1016.73
2019-03-19T06:41:42.495Z,1016.76
2019-03-19T06:42:47.998Z,1016.78
2019-03-19T06:43:53.506Z,1016.75
2019-03-19T06:44:59.015Z,1016.81
2019-03-19T06:46:04.518Z,1016.86
2019-03-19T06:47:10.027Z,1016.87
2019-03-19T06:48:15.524Z,1016.87
2019-03-19T06:49:21.025Z,1016.92
2019-03-19T06:50:28.121Z,1016.91
2019-03-19T06:51:32.041Z,1016.88
2019-03-19T06:52:37.550Z,1016.87
2019-03-19T06:53:43.042Z,1016.87
2019-03-19T06:54:48.556Z,1016.89
2019-03-19T06:55:54.055Z,1016.87
2019-03-19T06:56:59.559Z,1016.92
2019-03-19T06:58:10.854Z,1016.93
2019-03-19T06:59:10.565Z,1016.91
2019-03-19T07:00:16.070Z,1016.96
2019-03-19T07:01:21.578Z,1016.92
2019-03-19T07:02:27.092Z,1017.00
2019-03-19T07:03:32.586Z,1016.98
2019-03-19T07:04:38.087Z,1017.04
2019-03-19T07:05:43.604Z,1017.03
2019-03-19T07:06:49.100Z,1017.07
2019-03-19T07:07:54.615Z,1017.07
2019-03-19T07:09:00.107Z,1017.11
2019-03-19T07:10:05.609Z,1017.13
2019-03-19T07:11:11.119Z,1017.16
2019-03-19T07:12:16.629Z,1017.17
2019-03-19T07:13:22.131Z,1017.15
2019-03-19T07:14:27.638Z,1017.22
2019-03-19T07:15:33.139Z,1017.25
2019-03-19T07:16:38.656Z,1017.28
2019-03-19T07:17:44.159Z,1017.29
2019-03-19T07:18:49.664Z,1017.33
2019-03-19T07:19:55.220Z,1017.34
2019-03-19T07:21:00.673Z,1017.32
2019-03-19T07:22:06.165Z,1017.29
2019-03-19T07:23:11.667Z,1017.29
2019-03-19T07:24:17.179Z,1017.33
2019-03-19T07:25:22.685Z,1017.26
2019-03-19T07:26:28.192Z,1017.29
2019-03-19T07:27:33.696Z,1017.27
2019-03-19T07:28:39.198Z,1017.25
2019-03-19T07:29:44.697Z,1017.26
2019-03-19T07:30:50.203Z,1017.22
2019-03-19T07:31:55.726Z,1017.25
2019-03-19T07:33:01.216Z,1017.23
2019-03-19T07:34:06.723Z,1017.23
2019-03-19T07:35:12.231Z,1017.26
2019-03-19T07:36:17.736Z,1017.32
2019-03-19T07:37:23.232Z,1017.33
2019-03-19T07:38:28.745Z,1017.31
2019-03-19T07:39:34.246Z,1017.32
2019-03-19T07:40:39.750Z,1017.31
2019-03-19T07:41:45.269Z,1017.31
2019-03-19T07:42:50.768Z,1017.33
2019-03-19T07:43:56.272Z,1017.34
2019-03-19T07:45:01.775Z,1017.35
2019-03-19T07:46:07.293Z,1017.32
2019-03-19T07:47:12.807Z,1017.35
2019-03-19T07:48:18.294Z,1017.35
2019-03-19T07:49:23.810Z,1017.39
2019-03-19T07:50:29.311Z,1017.40
2019-03-19T07:51:34.813Z,1017.39
2019-03-19T07:52:40.315Z,1017.45
2019-03-19T07:53:45.824Z,1017.40
2019-03-19T07:54:51.327Z,1017.45
2019-03-19T07:55:56.841Z,1017.45
2019-03-19T07:57:02.338Z,1017.47
2019-03-19T07:58:07.847Z,1017.42
2019-03-19T07:59:13.364Z,1017.42
2019-03-19T08:00:18.869Z,1017.41
2019-03-19T08:01:24.776Z,1017.46
2019-03-19T08:02:29.870Z,1017.41
2019-03-19T08:03:35.391Z,1017.42
2019-03-19T08:04:40.898Z,1017.41
2019-03-19T08:05:46.403Z,1017.43
2019-03-19T08:06:52.420Z,1017.48
2019-03-19T08:07:57.423Z,1017.48
2019-03-19T08:09:02.905Z,1017.52
2019-03-19T08:10:09.015Z,1017.52
2019-03-19T08:11:16.560Z,1017.57
2019-03-19T08:12:19.434Z,1017.56
2019-03-19T08:13:24.935Z,1017.59
2019-03-19T08:14:30.441Z,1017.59
2019-03-19T08:15:35.946Z,1017.62
2019-03-19T08:16:41.471Z,1017.58
2019-03-19T08:17:46.958Z,1017.61
2019-03-19T08:18:52.487Z,1017.63
2019-03-19T08:19:57.982Z,1017.63
2019-03-19T08:21:03.483Z,1017.67
2019-03-19T08:22:08.998Z,1017.72
2019-03-19T08:23:14.495Z,1017.72
2019-03-19T08:24:20.004Z,1017.76
2019-03-19T08:25:25.513Z,1017.75
2019-03-19T08:26:31.050Z,1017.74
2019-03-19T08:27:36.523Z,1017.76
2019-03-19T08:28:42.041Z,1017.74
2019-03-19T08:29:47.547Z,1017.74
2019-03-19T08:30:53.059Z,1017.71
2019-03-19T08:31:58.548Z,1017.75
2019-03-19T08:33:04.063Z,1017.75
2019-03-19T08:34:09.569Z,1017.75
2019-03-19T08:35:15.075Z,1017.72
2019-03-19T08:36:20.604Z,1017.72
2019-03-19T08:37:26.092Z,1017.77
2019-03-19T08:38:31.611Z,1017.79
2019-03-19T08:39:37.103Z,1017.76
2019-03-19T08:40:42.611Z,1017.79
2019-03-19T08:41:48.123Z,1017.82
2019-03-19T08:42:53.620Z,1017.79
2019-03-19T08:43:59.133Z,1017.78
2019-03-19T08:45:04.637Z,1017.85
2019-03-19T08:46:10.149Z,1017.91
2019-03-19T08:47:15.666Z,1017.92
2019-03-19T08:48:21.163Z,1017.99
2019-03-19T08:49:26.670Z,1017.97
2019-03-19T08:50:32.178Z,1017.97
2019-03-19T08:51:37.691Z,1017.99
2019-03-19T08:52:43.188Z,1017.96
2019-03-19T08:53:48.697Z,1018.02
2019-03-19T08:54:54.206Z,1018.00
2019-03-19T08:56:01.097Z,1017.99
2019-03-19T08:57:05.226Z,1018.07
2019-03-19T08:58:10.738Z,1018.09
2019-03-19T08:59:16.247Z,1018.07
2019-03-19T09:00:21.748Z,1018.05
2019-03-19T09:01:27.257Z,1018.06
2019-03-19T09:02:32.768Z,1018.06
2019-03-19T09:03:38.273Z,1018.01
2019-03-19T09:04:43.815Z,1018.03
2019-03-19T09:05:49.281Z,1018.03
2019-03-19T09:06:54.804Z,1018.02
2019-03-19T09:08:00.304Z,1018.03
2019-03-19T09:09:05.811Z,1018.07
2019-03-19T09:10:11.319Z,1018.09
2019-03-19T09:11:16.827Z,1018.07
2019-03-19T09:12:22.341Z,1018.08
2019-03-19T09:13:27.840Z,1018.06
2019-03-19T09:14:33.345Z,1018.02
2019-03-19T09:15:38.861Z,1018.02
2019-03-19T09:16:44.371Z,1017.99
2019-03-19T09:17:49.875Z,1017.97
2019-03-19T09:18:55.395Z,1018.03
2019-03-19T09:20:00.883Z,1018.00
2019-03-19T09:21:06.393Z,1018.01
2019-03-19T09:22:11.900Z,1018.01
2019-03-19T09:23:17.410Z,1018.01
2019-03-19T09:24:22.917Z,1018.03
2019-03-19T09:25:28.430Z,1018.05
2019-03-19T09:26:33.940Z,1018.07
2019-03-19T09:27:39.458Z,1018.09
2019-03-19T09:28:44.956Z,1018.07
2019-03-19T09:29:50.477Z,1018.09
2019-03-19T09:30:55.968Z,1018.11
2019-03-19T09:32:01.472Z,1018.14
2019-03-19T09:33:06.985Z,1018.15
2019-03-19T09:34:12.494Z,1018.17
2019-03-19T09:35:18.012Z,1018.18
2019-03-19T09:36:23.510Z,1018.16
2019-03-19T09:37:29.023Z,1018.13
2019-03-19T09:38:34.527Z,1018.15
2019-03-19T09:39:40.033Z,1018.14
2019-03-19T09:40:45.552Z,1018.13
2019-03-19T09:41:51.061Z,1018.18
2019-03-19T09:42:56.565Z,1018.22
2019-03-19T09:44:02.077Z,1018.18
2019-03-19T09:45:07.575Z,1018.21
2019-03-19T09:46:13.093Z,1018.21
2019-03-19T09:47:18.614Z,1018.21
2019-03-19T09:48:24.107Z,1018.24
2019-03-19T09:49:29.607Z,1018.22
2019-03-19T09:50:35.120Z,1018.19
2019-03-19T09:51:40.630Z,1018.19
2019-03-19T09:52:46.141Z,1018.19
2019-03-19T09:53:51.642Z,1018.22
2019-03-19T09:54:57.162Z,1018.28
2019-03-19T09:56:02.684Z,1018.21
2019-03-19T09:57:08.189Z,1018.23
2019-03-19T09:58:13.677Z,1018.25
2019-03-19T09:59:26.724Z,1018.23
2019-03-19T10:00:24.699Z,1018.19
2019-03-19T10:01:30.226Z,1018.18
2019-03-19T10:02:35.719Z,1018.16
2019-03-19T10:03:41.221Z,1018.21
2019-03-19T10:04:46.733Z,1018.26
2019-03-19T10:05:52.250Z,1018.25
2019-03-19T10:07:05.685Z,1018.19
2019-03-19T10:08:03.258Z,1018.24
2019-03-19T10:09:08.766Z,1018.22
2019-03-19T10:10:14.274Z,1018.22
2019-03-19T10:11:19.791Z,1018.23
2019-03-19T10:12:25.303Z,1018.22
2019-03-19T10:13:30.799Z,1018.25
2019-03-19T10:14:36.318Z,1018.29
2019-03-19T10:15:41.821Z,1018.35
2019-03-19T10:16:47.332Z,1018.36
2019-03-19T10:17:52.847Z,1018.35
2019-03-19T10:18:58.360Z,1018.33
2019-03-19T10:20:03.871Z,1018.32
2019-03-19T10:21:09.375Z,1018.30
2019-03-19T10:22:15.324Z,1018.29
2019-03-19T10:23:20.378Z,1018.28
2019-03-19T10:24:25.888Z,1018.30
2019-03-19T10:25:31.402Z,1018.34
2019-03-19T10:26:36.912Z,1018.35
2019-03-19T10:27:42.418Z,1018.31
2019-03-19T10:28:47.929Z,1018.34
2019-03-19T10:29:53.441Z,1018.29
2019-03-19T10:30:58.940Z,1018.30
2019-03-19T10:32:04.457Z,1018.31
2019-03-19T10:33:10.017Z,1018.30
2019-03-19T10:34:15.560Z,1018.21
2019-03-19T10:35:20.986Z,1018.17
2019-03-19T10:36:26.581Z,1018.20
2019-03-19T10:37:32.011Z,1018.20
2019-03-19T10:38:37.516Z,1018.24
2019-03-19T10:39:43.018Z,1018.29
2019-03-19T10:40:48.533Z,1018.30
2019-03-19T10:41:54.032Z,1018.30
2019-03-19T10:42:59.552Z,1018.32
2019-03-19T10:44:05.049Z,1018.34
2019-03-19T10:45:10.571Z,1018.34
2019-03-19T10:46:16.082Z,1018.32
2019-03-19T10:47:21.590Z,1018.34
2019-03-19T10:48:27.091Z,1018.31
2019-03-19T10:49:32.603Z,1018.32
2019-03-19T10:50:38.112Z,1018.36
2019-03-19T10:51:43.631Z,1018.36
2019-03-19T10:52:49.134Z,1018.35
2019-03-19T10:53:54.638Z,1018.37
2019-03-19T10:55:00.352Z,1018.36
2019-03-19T10:56:05.668Z,1018.36
2019-03-19T10:57:11.172Z,1018.39
2019-03-19T10:58:16.687Z,1018.41
2019-03-19T10:59:22.186Z,1018.41
2019-03-19T11:00:27.705Z,1018.38
2019-03-19T11:01:33.205Z,1018.38
2019-03-19T11:02:38.735Z,1018.39
2019-03-19T11:03:44.245Z,1018.39
2019-03-19T11:04:49.736Z,1018.39
2019-03-19T11:05:55.249Z,1018.44
2019-03-19T11:07:00.762Z,1018.45
2019-03-19T11:08:06.285Z,1018.49
2019-03-19T11:09:11.789Z,1018.48
2019-03-19T11:10:17.285Z,1018.43
2019-03-19T11:11:22.798Z,1018.45
2019-03-19T11:12:28.318Z,1018.43
2019-03-19T11:13:33.818Z,1018.43
2019-03-19T11:14:39.327Z,1018.42
2019-03-19T11:15:44.849Z,1018.39
2019-03-19T11:16:50.351Z,1018.43
2019-03-19T11:17:55.867Z,1018.44
2019-03-19T11:19:01.366Z,1018.47
2019-03-19T11:20:06.886Z,1018.48
2019-03-19T11:21:12.390Z,1018.47
2019-03-19T11:22:17.902Z,1018.48
2019-03-19T11:23:23.415Z,1018.44
2019-03-19T11:24:28.926Z,1018.45
2019-03-19T11:25:34.430Z,1018.41
2019-03-19T11:26:39.939Z,1018.46
2019-03-19T11:27:45.460Z,1018.45
2019-03-19T11:28:50.966Z,1018.47
2019-03-19T11:30:00.015Z,1018.47
2019-03-19T11:31:01.985Z,1018.45
2019-03-19T11:32:07.507Z,1018.48
2019-03-19T11:33:12.998Z,1018.52
2019-03-19T11:34:18.521Z,1018.49
2019-03-19T11:35:24.023Z,1018.50
2019-03-19T11:36:29.537Z,1018.53
2019-03-19T11:37:35.040Z,1018.44
2019-03-19T11:38:40.555Z,1018.46
2019-03-19T11:39:46.061Z,1018.45
2019-03-19T11:40:51.569Z,1018.43
2019-03-19T11:41:57.099Z,1018.43
2019-03-19T11:43:02.598Z,1018.49
2019-03-19T11:44:08.116Z,1018.49
2019-03-19T11:45:13.616Z,1018.49
2019-03-19T11:46:19.136Z,1018.50
2019-03-19T11:47:24.645Z,1018.49
2019-03-19T11:48:30.154Z,1018.50
2019-03-19T11:49:35.671Z,1018.49
2019-03-19T11:50:41.165Z,1018.49
2019-03-19T11:51:46.681Z,1018.47
2019-03-19T11:52:52.200Z,1018.46
2019-03-19T11:53:57.704Z,1018.46
2019-03-19T11:55:03.218Z,1018.44
2019-03-19T11:56:08.721Z,1018.38
2019-03-19T11:57:14.251Z,1018.40
2019-03-19T11:58:19.750Z,1018.34
2019-03-19T11:59:25.252Z,1018.36
2019-03-19T12:00:30.786Z,1018.37
2019-03-19T12:01:36.286Z,1018.36
2019-03-19T12:02:41.801Z,1018.30
2019-03-19T12:03:47.310Z,1018.31
2019-03-19T12:04:52.812Z,1018.26
2019-03-19T12:05:58.320Z,1018.30
2019-03-19T12:07:03.838Z,1018.29
2019-03-19T12:08:09.340Z,1018.33
2019-03-19T12:09:14.865Z,1018.32
2019-03-19T12:10:20.373Z,1018.29
2019-03-19T12:11:25.879Z,1018.29
2019-03-19T12:12:31.388Z,1018.27
2019-03-19T12:13:36.898Z,1018.33
2019-03-19T12:14:42.416Z,1018.31
2019-03-19T12:15:47.918Z,1018.35
2019-03-19T12:16:53.434Z,1018.36
2019-03-19T12:17:58.940Z,1018.36
2019-03-19T12:19:04.459Z,1018.36
2019-03-19T12:20:09.966Z,1018.35
2019-03-19T12:21:15.480Z,1018.32
2019-03-19T12:22:20.999Z,1018.36
2019-03-19T12:23:26.499Z,1018.39
2019-03-19T12:24:32.851Z,1018.37
2019-03-19T12:25:37.516Z,1018.37
2019-03-19T12:26:43.028Z,1018.42
2019-03-19T12:27:48.548Z,1018.38
2019-03-19T12:28:54.062Z,1018.36
2019-03-19T12:29:59.568Z,1018.35
2019-03-19T12:31:05.086Z,1018.33
2019-03-19T12:32:10.610Z,1018.31
2019-03-19T12:33:16.095Z,1018.35
2019-03-19T12:34:21.610Z,1018.34
2019-03-19T12:35:27.129Z,1018.34
2019-03-19T12:36:32.641Z,1018.32
2019-03-19T12:37:38.153Z,1018.35
2019-03-19T12:38:43.659Z,1018.37
2019-03-19T12:39:49.177Z,1018.39
2019-03-19T12:40:54.681Z,1018.34
2019-03-19T12:42:00.195Z,1018.36
2019-03-19T12:43:05.698Z,1018.37
2019-03-19T12:44:11.216Z,1018.31
2019-03-19T12:45:16.721Z,1018.34
2019-03-19T12:46:22.232Z,1018.32
2019-03-19T12:47:27.747Z,1018.37
2019-03-19T12:48:33.270Z,1018.38
2019-03-19T12:49:38.776Z,1018.35
2019-03-19T12:50:44.288Z,1018.35
2019-03-19T12:51:49.807Z,1018.36
2019-03-19T12:52:55.316Z,1018.34
2019-03-19T12:54:00.816Z,1018.31
2019-03-19T12:55:06.351Z,1018.31
2019-03-19T12:56:11.844Z,1018.26
2019-03-19T12:57:17.362Z,1018.30
2019-03-19T12:58:22.865Z,1018.32
2019-03-19T12:59:28.388Z,1018.28
2019-03-19T13:00:34.995Z,1018.32
2019-03-19T13:01:39.413Z,1018.30
2019-03-19T13:02:44.924Z,1018.33
2019-03-19T13:03:50.440Z,1018.35
2019-03-19T13:04:55.940Z,1018.32
2019-03-19T13:06:01.465Z,1018.32
2019-03-19T13:07:06.974Z,1018.30
2019-03-19T13:08:12.494Z,1018.31
2019-03-19T13:09:18.007Z,1018.33
2019-03-19T13:10:23.548Z,1018.39
2019-03-19T13:11:29.039Z,1018.36
2019-03-19T13:12:34.550Z,1018.36